YYG weather

Charlottetown Airport
Charlottetown, Prince Edward Island, Canada

Public forecast

Using degrees Celsius for public forecast. Weather courtesy of forecast.io.

Current aviation weather report (METAR) for Charlottetown Airport

Retrieved 2019/12/14 15:00 UTC (17 minutes ago):

CYYG 141500Z 10013G19KT 15SM BKN084 OVC180 01/M01 A3021 RMK AC5AC3 PRESFR SLP233

Aviation forecast (TAF) for Charlottetown Airport

Retrieved 2019/12/14 12:39 UTC (3 hours ago):

TAF CYYG 141138Z 1412/1424 14012KT P6SM SCT008 OVC040 TEMPO 1412/1417 BKN008 OVC020 BECMG 1412/1414 13015G30KT FM141700 13020G35KT 2SM RA BR OVC004 TEMPO 1417/1419 6SM -RA BR OVC010 FM142100 13020G38KT 1SM RA BR OVC003 RMK NXT FCST BY 141800Z